createdAt,value
2023-04-29T00:00:18.164Z,11.85
2023-04-29T00:03:43.784Z,10.73
2023-04-29T00:06:49.662Z,10.80
2023-04-29T00:09:54.844Z,13.20
2023-04-29T00:13:00.286Z,10.10
2023-04-29T00:16:08.974Z,13.55
2023-04-29T00:19:15.287Z,13.32
2023-04-29T00:22:22.236Z,12.68
2023-04-29T00:25:30.563Z,17.10
2023-04-29T00:28:35.659Z,12.70
2023-04-29T00:31:43.538Z,16.25
2023-04-29T00:34:48.830Z,12.13
2023-04-29T00:37:54.279Z,14.80
2023-04-29T00:41:02.212Z,15.05
2023-04-29T00:44:08.665Z,14.50
2023-04-29T00:47:16.844Z,13.05
2023-04-29T00:50:22.545Z,15.75
2023-04-29T00:53:31.812Z,15.98
2023-04-29T00:56:38.621Z,15.20
2023-04-29T00:59:43.857Z,14.88
2023-04-29T01:02:52.956Z,15.38
2023-04-29T01:06:05.897Z,16.80
2023-04-29T01:09:20.614Z,15.90
2023-04-29T01:12:31.704Z,16.27
2023-04-29T01:15:41.869Z,15.32
2023-04-29T01:18:51.779Z,15.18
2023-04-29T01:21:57.090Z,15.10
2023-04-29T01:25:05.269Z,19.75
2023-04-29T01:28:17.541Z,13.63
2023-04-29T01:31:24.880Z,16.83
2023-04-29T01:34:34.077Z,16.35
2023-04-29T01:37:42.444Z,16.60
2023-04-29T01:40:57.059Z,16.58
2023-04-29T01:44:04.240Z,14.38
2023-04-29T01:47:10.380Z,15.75
2023-04-29T01:50:15.623Z,13.25
2023-04-29T01:53:21.069Z,14.02
2023-04-29T01:56:31.536Z,14.65
2023-04-29T01:59:37.694Z,16.48
2023-04-29T02:02:43.310Z,17.70
2023-04-29T02:05:52.165Z,16.13
2023-04-29T02:08:57.914Z,17.15
2023-04-29T02:12:07.815Z,15.45
2023-04-29T02:15:16.399Z,13.57
2023-04-29T02:18:26.223Z,16.40
2023-04-29T02:21:35.456Z,16.65
2023-04-29T02:24:42.003Z,15.73
2023-04-29T02:27:50.311Z,13.73
2023-04-29T02:30:56.046Z,15.77
2023-04-29T02:34:04.564Z,17.33
2023-04-29T02:37:11.548Z,14.65
2023-04-29T02:40:17.268Z,18.42
2023-04-29T02:43:28.440Z,16.67
2023-04-29T02:46:38.068Z,17.55
2023-04-29T02:49:47.239Z,21.23
2023-04-29T02:52:54.176Z,16.77
2023-04-29T02:55:59.670Z,15.10
2023-04-29T02:59:08.041Z,13.93
2023-04-29T03:02:15.281Z,14.55
2023-04-29T03:05:21.086Z,18.58
2023-04-29T03:08:28.116Z,13.85
2023-04-29T03:11:33.436Z,16.23
2023-04-29T03:14:41.965Z,16.98
2023-04-29T03:17:48.746Z,15.00
2023-04-29T03:20:54.135Z,16.77
2023-04-29T03:23:59.859Z,15.85
2023-04-29T03:27:07.475Z,13.82
2023-04-29T03:30:16.822Z,16.33
2023-04-29T03:33:22.694Z,12.45
2023-04-29T03:36:28.180Z,12.38
2023-04-29T03:39:33.881Z,15.85
2023-04-29T03:42:41.088Z,16.45
2023-04-29T03:45:49.460Z,14.43
2023-04-29T03:48:59.056Z,14.18
2023-04-29T03:52:05.040Z,16.63
2023-04-29T03:55:11.434Z,16.02
2023-04-29T03:58:17.323Z,13.77
2023-04-29T04:01:26.847Z,16.27
2023-04-29T04:04:32.455Z,13.88
2023-04-29T04:07:37.803Z,12.05
2023-04-29T04:10:44.494Z,15.85
2023-04-29T04:13:50.083Z,14.38
2023-04-29T04:16:58.171Z,13.13
2023-04-29T04:20:03.157Z,15.63
2023-04-29T04:23:10.561Z,14.38
2023-04-29T04:26:16.171Z,15.13
2023-04-29T04:29:31.398Z,13.60
2023-04-29T04:32:39.568Z,13.98
2023-04-29T04:35:45.223Z,14.15
2023-04-29T04:38:50.219Z,13.90
2023-04-29T04:41:56.215Z,15.80
2023-04-29T04:45:03.983Z,12.18
2023-04-29T04:48:13.625Z,12.60
2023-04-29T04:51:20.063Z,12.93
2023-04-29T04:54:30.199Z,11.60
2023-04-29T04:57:35.171Z,13.55
2023-04-29T05:00:40.930Z,16.08
2023-04-29T05:03:50.682Z,14.40
2023-04-29T05:06:56.635Z,15.93
2023-04-29T05:10:01.750Z,13.00
2023-04-29T05:13:10.990Z,11.38
2023-04-29T05:16:18.241Z,14.60
2023-04-29T05:19:31.022Z,13.85
2023-04-29T05:22:38.133Z,16.55
2023-04-29T05:25:43.784Z,14.68
2023-04-29T05:28:52.894Z,12.75
2023-04-29T05:31:58.429Z,14.77
2023-04-29T05:35:07.748Z,12.25
2023-04-29T05:38:13.568Z,13.23
2023-04-29T05:41:24.498Z,13.48
2023-04-29T05:44:30.632Z,15.70
2023-04-29T05:47:35.701Z,12.60
2023-04-29T05:50:43.940Z,12.25
2023-04-29T05:53:51.448Z,14.85
2023-04-29T05:56:58.644Z,14.02
2023-04-29T06:00:07.150Z,13.38
2023-04-29T06:03:17.379Z,11.68
2023-04-29T06:06:25.331Z,15.23
2023-04-29T06:09:33.551Z,13.55
2023-04-29T06:12:39.182Z,11.35
2023-04-29T06:15:48.137Z,12.93
2023-04-29T06:18:53.349Z,13.05
2023-04-29T06:22:03.006Z,14.35
2023-04-29T06:25:09.954Z,12.00
2023-04-29T06:28:15.697Z,15.35
2023-04-29T06:31:23.344Z,14.45
2023-04-29T06:34:29.747Z,15.65
2023-04-29T06:37:39.792Z,15.55
2023-04-29T06:40:46.413Z,15.05
2023-04-29T06:43:51.505Z,15.20
2023-04-29T06:46:56.866Z,12.13
2023-04-29T06:50:09.524Z,14.68
2023-04-29T06:53:19.500Z,13.18
2023-04-29T06:56:25.101Z,12.75
2023-04-29T06:59:30.493Z,14.48
2023-04-29T07:02:39.418Z,14.43
2023-04-29T07:05:45.847Z,14.40
2023-04-29T07:08:56.348Z,13.20
2023-04-29T07:12:05.401Z,15.43
2023-04-29T07:15:11.032Z,14.05
2023-04-29T07:18:18.381Z,14.40
2023-04-29T07:21:24.445Z,13.00
2023-04-29T07:24:32.559Z,15.60
2023-04-29T07:27:39.769Z,14.98
2023-04-29T07:30:50.178Z,13.48
2023-04-29T07:33:55.144Z,15.20
2023-04-29T07:37:00.915Z,13.45
2023-04-29T07:40:10.627Z,14.07
2023-04-29T07:43:16.198Z,12.45
2023-04-29T07:46:21.273Z,12.90
2023-04-29T07:49:27.579Z,14.95
2023-04-29T07:52:33.830Z,14.65
2023-04-29T07:55:47.039Z,14.38
2023-04-29T07:58:54.796Z,16.58
2023-04-29T08:02:00.657Z,15.15
2023-04-29T08:05:05.925Z,14.27
2023-04-29T08:08:13.118Z,14.95
2023-04-29T08:11:24.787Z,15.07
2023-04-29T08:14:33.059Z,16.17
2023-04-29T08:17:41.168Z,15.27
2023-04-29T08:20:46.518Z,14.43
2023-04-29T08:23:51.947Z,15.00
2023-04-29T08:27:00.532Z,14.82
2023-04-29T08:30:05.508Z,13.20
2023-04-29T08:33:14.300Z,15.15
2023-04-29T08:36:19.291Z,13.30
2023-04-29T08:39:25.577Z,15.25
2023-04-29T08:42:36.540Z,15.20
2023-04-29T08:45:46.096Z,13.10
2023-04-29T08:48:51.635Z,15.70
2023-04-29T08:51:56.968Z,16.13
2023-04-29T08:55:03.909Z,16.25
2023-04-29T08:58:12.906Z,14.10
2023-04-29T09:01:18.559Z,17.50
2023-04-29T09:04:35.571Z,13.48
2023-04-29T09:07:47.437Z,17.13
2023-04-29T09:10:57.317Z,14.18
2023-04-29T09:14:06.401Z,12.77
2023-04-29T09:17:12.081Z,13.55
2023-04-29T09:20:32.702Z,12.20
2023-04-29T09:23:40.231Z,14.23
2023-04-29T09:26:45.929Z,16.40
2023-04-29T09:30:03.089Z,15.57
2023-04-29T09:33:09.493Z,14.43
2023-04-29T09:36:18.179Z,17.45
2023-04-29T09:39:23.705Z,16.13
2023-04-29T09:42:29.801Z,17.20
2023-04-29T09:45:42.126Z,16.98
2023-04-29T09:48:48.733Z,20.33
2023-04-29T09:51:58.898Z,16.70
2023-04-29T09:55:08.394Z,14.88
2023-04-29T09:58:32.952Z,15.75
2023-04-29T10:01:42.247Z,15.40
2023-04-29T10:04:49.966Z,15.95
2023-04-29T10:07:55.349Z,14.73
2023-04-29T10:11:02.553Z,13.93
2023-04-29T10:14:10.870Z,15.05
2023-04-29T10:17:27.925Z,14.00
2023-04-29T10:20:33.743Z,14.85
2023-04-29T10:23:41.615Z,16.23
2023-04-29T10:26:47.330Z,16.83
2023-04-29T10:29:53.598Z,16.75
2023-04-29T10:33:05.136Z,15.32
2023-04-29T10:36:11.030Z,14.52
2023-04-29T10:39:21.011Z,16.30
2023-04-29T10:42:33.247Z,16.75
2023-04-29T10:45:41.019Z,14.88
2023-04-29T10:48:49.794Z,16.77
2023-04-29T10:51:55.184Z,15.27
2023-04-29T10:55:07.584Z,16.67
2023-04-29T10:58:37.201Z,14.45
2023-04-29T11:01:46.524Z,17.95
2023-04-29T11:05:09.763Z,16.33
2023-04-29T11:08:23.475Z,16.48
2023-04-29T11:11:29.438Z,18.05
2023-04-29T11:14:39.378Z,14.45
2023-04-29T11:17:44.541Z,14.38
2023-04-29T11:21:14.222Z,16.33
2023-04-29T11:24:22.956Z,15.98
2023-04-29T11:27:29.835Z,20.50
2023-04-29T11:30:37.347Z,19.25
2023-04-29T11:33:42.466Z,15.80
2023-04-29T11:36:47.966Z,16.17
2023-04-29T11:40:06.828Z,17.60
2023-04-29T11:43:14.170Z,14.95
2023-04-29T11:46:22.751Z,16.67
2023-04-29T11:49:33.269Z,16.42
2023-04-29T11:52:39.370Z,16.65
2023-04-29T11:55:48.416Z,15.98
2023-04-29T11:58:54.624Z,15.38
2023-04-29T12:02:03.316Z,17.20
2023-04-29T12:05:10.244Z,16.25
2023-04-29T12:08:15.805Z,18.75
2023-04-29T12:11:25.236Z,17.02
2023-04-29T12:14:30.627Z,19.23
2023-04-29T12:17:36.017Z,18.40
2023-04-29T12:20:42.046Z,16.27
2023-04-29T12:23:46.997Z,15.15
2023-04-29T12:26:56.002Z,14.88
2023-04-29T12:30:01.610Z,15.20
2023-04-29T12:33:07.866Z,17.92
2023-04-29T12:36:19.560Z,13.90
2023-04-29T12:39:25.230Z,17.83
2023-04-29T12:42:37.794Z,14.63
2023-04-29T12:45:44.499Z,17.42
2023-04-29T12:48:50.465Z,16.20
2023-04-29T12:51:59.795Z,14.48
2023-04-29T12:55:07.835Z,15.73
2023-04-29T12:58:16.033Z,18.25
2023-04-29T13:01:24.094Z,18.15
2023-04-29T13:04:33.376Z,15.10
2023-04-29T13:07:38.549Z,17.10
2023-04-29T13:10:44.253Z,18.73
2023-04-29T13:13:52.700Z,14.30
2023-04-29T13:16:58.490Z,13.13
2023-04-29T13:20:03.564Z,14.38
2023-04-29T13:23:12.360Z,16.40
2023-04-29T13:26:18.639Z,14.98
2023-04-29T13:29:29.327Z,16.67
2023-04-29T13:32:43.969Z,14.48
2023-04-29T13:35:57.188Z,14.10
2023-04-29T13:39:05.291Z,15.88
2023-04-29T13:42:15.464Z,14.20
2023-04-29T13:45:29.099Z,13.05
2023-04-29T13:49:11.150Z,15.45
2023-04-29T13:56:11.553Z,14.85
2023-04-29T13:59:31.649Z,12.25
2023-04-29T14:02:25.078Z,14.55
2023-04-29T14:05:40.320Z,13.98
2023-04-29T14:08:46.351Z,15.57
2023-04-29T14:11:52.586Z,11.65
2023-04-29T14:15:00.858Z,13.85
2023-04-29T14:18:13.039Z,16.63
2023-04-29T14:21:22.705Z,12.00
2023-04-29T14:24:28.254Z,12.30
2023-04-29T14:27:38.755Z,13.60
2023-04-29T14:30:47.097Z,13.30
2023-04-29T14:33:57.817Z,12.63
2023-04-29T14:37:04.475Z,11.18
2023-04-29T14:40:12.969Z,11.65
2023-04-29T14:43:20.586Z,11.35
2023-04-29T14:46:26.766Z,12.30
2023-04-29T14:49:36.998Z,13.38
2023-04-29T14:52:45.825Z,14.52
2023-04-29T14:55:53.774Z,16.15
2023-04-29T14:59:02.090Z,14.15
2023-04-29T15:02:10.406Z,15.07
2023-04-29T15:05:18.982Z,14.77
2023-04-29T15:08:27.239Z,16.15
2023-04-29T15:11:33.204Z,14.05
2023-04-29T15:14:38.200Z,13.48
2023-04-29T15:17:44.104Z,16.20
2023-04-29T15:20:54.073Z,13.98
2023-04-29T15:24:02.956Z,14.40
2023-04-29T15:27:09.419Z,14.98
2023-04-29T15:30:16.898Z,13.18
2023-04-29T15:33:22.075Z,11.80
2023-04-29T15:36:37.488Z,13.07
2023-04-29T15:39:42.491Z,12.63
2023-04-29T15:42:48.174Z,11.00
2023-04-29T15:45:57.572Z,9.23
2023-04-29T15:49:04.923Z,11.38
2023-04-29T15:52:15.298Z,8.70
2023-04-29T15:55:21.306Z,12.40
2023-04-29T15:58:30.972Z,11.85
2023-04-29T16:01:37.192Z,11.40
2023-04-29T16:04:42.252Z,14.98
2023-04-29T16:07:50.275Z,11.35
2023-04-29T16:10:57.103Z,10.15
2023-04-29T16:14:03.180Z,9.65
2023-04-29T16:17:08.633Z,8.88
2023-04-29T16:20:18.595Z,10.85
2023-04-29T16:23:26.767Z,10.60
2023-04-29T16:26:32.509Z,9.30
2023-04-29T16:29:37.844Z,9.02
2023-04-29T16:32:46.246Z,10.40
2023-04-29T16:35:54.134Z,12.63
2023-04-29T16:39:04.364Z,12.80
2023-04-29T16:42:12.290Z,12.73
2023-04-29T16:45:18.512Z,9.55
2023-04-29T16:48:30.848Z,9.48
2023-04-29T16:51:36.621Z,10.82
2023-04-29T16:54:48.652Z,8.07
2023-04-29T16:57:57.055Z,9.10
2023-04-29T17:01:04.604Z,12.02
2023-04-29T17:04:16.020Z,11.40
2023-04-29T17:07:22.153Z,11.70
2023-04-29T17:10:33.269Z,8.02
2023-04-29T17:13:38.565Z,12.18
2023-04-29T17:16:44.168Z,8.82
2023-04-29T17:19:51.957Z,8.18
2023-04-29T17:22:59.133Z,9.68
2023-04-29T17:26:07.694Z,8.55
2023-04-29T17:29:13.188Z,9.55
2023-04-29T17:32:18.266Z,8.48
2023-04-29T17:35:24.804Z,9.15
2023-04-29T17:38:30.313Z,10.55
2023-04-29T17:41:39.659Z,7.90
2023-04-29T17:44:46.390Z,6.72
2023-04-29T17:47:54.641Z,7.53
2023-04-29T17:51:01.548Z,10.75
2023-04-29T17:54:16.212Z,6.97
2023-04-29T17:57:28.875Z,11.43
2023-04-29T18:00:35.259Z,12.52
2023-04-29T18:03:47.684Z,9.15
2023-04-29T18:06:57.390Z,10.77
2023-04-29T18:10:02.697Z,11.43
2023-04-29T18:13:10.954Z,8.27
2023-04-29T18:16:17.118Z,10.05
2023-04-29T18:19:22.448Z,7.38
2023-04-29T18:22:27.859Z,11.82
2023-04-29T18:25:39.985Z,9.63
2023-04-29T18:28:49.324Z,8.70
2023-04-29T18:31:55.641Z,9.50
2023-04-29T18:35:00.951Z,9.55
2023-04-29T18:38:10.942Z,8.85
2023-04-29T18:41:18.908Z,9.02
2023-04-29T18:44:27.982Z,11.98
2023-04-29T18:47:33.174Z,13.27
2023-04-29T18:50:41.383Z,12.85
2023-04-29T18:53:47.966Z,11.98
2023-04-29T18:56:55.059Z,8.40
2023-04-29T19:00:07.962Z,10.40
2023-04-29T19:03:13.412Z,14.02
2023-04-29T19:06:19.197Z,10.10
2023-04-29T19:09:25.052Z,14.27
2023-04-29T19:12:30.446Z,13.77
2023-04-29T19:15:39.880Z,14.63
2023-04-29T19:18:46.258Z,12.00
2023-04-29T19:21:52.568Z,13.48
2023-04-29T19:24:59.039Z,11.38
2023-04-29T19:28:13.484Z,11.38
2023-04-29T19:31:21.819Z,14.95
2023-04-29T19:34:27.217Z,12.10
2023-04-29T19:37:32.203Z,10.80
2023-04-29T19:40:37.960Z,14.18
2023-04-29T19:43:44.063Z,16.20
2023-04-29T19:46:53.694Z,12.88
2023-04-29T19:50:01.826Z,14.27
2023-04-29T19:53:08.065Z,13.77
2023-04-29T19:56:13.341Z,13.90
2023-04-29T19:59:22.552Z,14.65
2023-04-29T20:02:33.730Z,11.68
2023-04-29T20:05:42.630Z,14.95
2023-04-29T20:08:47.644Z,13.70
2023-04-29T20:11:58.517Z,15.13
2023-04-29T20:15:08.354Z,12.60
2023-04-29T20:18:23.767Z,14.60
2023-04-29T20:21:32.998Z,13.88
2023-04-29T20:24:39.665Z,12.55
2023-04-29T20:27:44.711Z,12.38
2023-04-29T20:30:52.697Z,13.70
2023-04-29T20:34:00.565Z,15.98
2023-04-29T20:37:10.978Z,12.55
2023-04-29T20:40:20.647Z,13.18
2023-04-29T20:43:26.208Z,11.98
2023-04-29T20:46:33.732Z,8.82
2023-04-29T20:49:44.106Z,14.68
2023-04-29T20:52:51.163Z,11.90
2023-04-29T20:56:03.662Z,11.13
2023-04-29T20:59:08.629Z,8.65
2023-04-29T21:02:14.733Z,7.95
2023-04-29T21:05:22.530Z,10.75
2023-04-29T21:08:28.195Z,9.50
2023-04-29T21:11:40.667Z,8.45
2023-04-29T21:14:46.062Z,9.82
2023-04-29T21:17:54.063Z,9.60
2023-04-29T21:21:02.156Z,10.32
2023-04-29T21:24:09.166Z,10.02
2023-04-29T21:27:18.379Z,9.82
2023-04-29T21:30:26.239Z,10.73
2023-04-29T21:33:31.856Z,6.88
2023-04-29T21:36:39.497Z,10.18
2023-04-29T21:39:49.958Z,8.68
2023-04-29T21:42:55.479Z,10.20
2023-04-29T21:46:02.054Z,10.55
2023-04-29T21:49:07.691Z,10.95
2023-04-29T21:52:17.144Z,8.60
2023-04-29T21:55:22.151Z,10.40
2023-04-29T21:58:27.494Z,11.00
2023-04-29T22:01:48.748Z,8.60
2023-04-29T22:04:54.827Z,6.47
2023-04-29T22:08:03.467Z,9.38
2023-04-29T22:11:09.204Z,5.65
2023-04-29T22:14:14.272Z,7.78
2023-04-29T22:17:19.578Z,6.82
2023-04-29T22:20:25.002Z,8.18
2023-04-29T22:23:33.072Z,8.13
2023-04-29T22:26:40.107Z,9.13
2023-04-29T22:29:49.597Z,7.85
2023-04-29T22:32:55.241Z,7.28
2023-04-29T22:36:00.622Z,4.68
2023-04-29T22:39:08.461Z,5.85
2023-04-29T22:42:14.491Z,7.22
2023-04-29T22:45:19.559Z,6.53
2023-04-29T22:48:27.460Z,9.52
2023-04-29T22:51:35.914Z,8.02
2023-04-29T22:54:45.029Z,4.97
2023-04-29T22:57:52.826Z,8.43
2023-04-29T23:01:01.687Z,5.13
2023-04-29T23:04:07.474Z,6.32
2023-04-29T23:07:13.907Z,6.70
2023-04-29T23:10:31.211Z,7.22
2023-04-29T23:13:36.629Z,9.27
2023-04-29T23:16:41.780Z,6.60
2023-04-29T23:19:47.690Z,5.70
2023-04-29T23:22:56.249Z,4.82
2023-04-29T23:26:04.280Z,6.20
2023-04-29T23:29:09.254Z,8.30
2023-04-29T23:32:19.740Z,9.68
2023-04-29T23:35:24.736Z,5.95
2023-04-29T23:38:30.071Z,9.07
2023-04-29T23:41:37.650Z,10.00
2023-04-29T23:44:43.080Z,6.38
2023-04-29T23:47:48.112Z,7.32
2023-04-29T23:50:55.885Z,9.20
2023-04-29T23:54:01.099Z,7.43
2023-04-29T23:57:09.095Z,5.97
